createdAt,value
2018-03-07T00:00:07.187Z,4.40
2018-03-07T00:02:34.689Z,4.50
2018-03-07T00:05:02.177Z,4.50
2018-03-07T00:07:29.645Z,4.50
2018-03-07T00:09:57.099Z,4.40
2018-03-07T00:12:25.370Z,4.40
2018-03-07T00:14:54.361Z,4.50
2018-03-07T00:17:21.858Z,4.50
2018-03-07T00:19:50.097Z,4.50
2018-03-07T00:22:17.571Z,4.50
2018-03-07T00:24:45.033Z,4.50
2018-03-07T00:27:12.510Z,4.60
2018-03-07T00:29:40.738Z,4.60
2018-03-07T00:32:08.224Z,4.60
2018-03-07T00:34:36.483Z,4.60
2018-03-07T00:37:03.959Z,4.60
2018-03-07T00:39:32.202Z,4.60
2018-03-07T00:41:59.679Z,4.60
2018-03-07T00:44:27.146Z,4.60
2018-03-07T00:46:54.627Z,4.60
2018-03-07T00:49:22.094Z,4.60
2018-03-07T00:51:49.563Z,4.60
2018-03-07T00:54:17.032Z,4.60
2018-03-07T00:56:44.483Z,4.70
2018-03-07T00:59:11.962Z,4.70
2018-03-07T01:01:39.435Z,4.70
2018-03-07T01:04:06.933Z,4.70
2018-03-07T01:06:34.406Z,4.70
2018-03-07T01:09:01.868Z,4.70
2018-03-07T01:11:29.317Z,4.70
2018-03-07T01:13:56.800Z,4.70
2018-03-07T01:16:24.261Z,4.70
2018-03-07T01:18:51.715Z,4.70
2018-03-07T01:21:19.187Z,4.70
2018-03-07T01:23:46.646Z,4.70
2018-03-07T01:26:14.108Z,4.60
2018-03-07T01:28:41.578Z,4.60
2018-03-07T01:31:09.809Z,4.60
2018-03-07T01:33:37.258Z,4.60
2018-03-07T01:36:04.727Z,4.60
2018-03-07T01:38:32.184Z,4.60
2018-03-07T01:40:59.683Z,4.60
2018-03-07T01:43:27.207Z,4.70
2018-03-07T01:45:54.671Z,4.60
2018-03-07T01:48:22.136Z,4.60
2018-03-07T01:50:49.615Z,4.60
2018-03-07T01:53:17.838Z,4.60
2018-03-07T01:55:45.302Z,4.60
2018-03-07T01:58:12.789Z,4.60
2018-03-07T02:00:40.252Z,4.60
2018-03-07T02:03:08.522Z,4.60
2018-03-07T02:05:35.990Z,4.60
2018-03-07T02:08:04.279Z,4.60
2018-03-07T02:10:31.702Z,4.60
2018-03-07T02:12:59.170Z,4.60
2018-03-07T02:15:27.395Z,4.70
2018-03-07T02:17:54.862Z,4.70
2018-03-07T02:20:22.346Z,4.70
2018-03-07T02:22:49.811Z,4.70
2018-03-07T02:25:17.280Z,4.70
2018-03-07T02:27:45.527Z,4.70
2018-03-07T02:30:12.986Z,4.70
2018-03-07T02:32:40.530Z,4.70
2018-03-07T02:35:08.728Z,4.70
2018-03-07T02:37:36.255Z,4.60
2018-03-07T02:40:03.714Z,4.60
2018-03-07T02:42:31.192Z,4.60
2018-03-07T02:44:58.646Z,4.70
2018-03-07T02:47:26.102Z,4.70
2018-03-07T02:49:53.570Z,4.70
2018-03-07T02:52:21.028Z,4.60
2018-03-07T02:54:49.271Z,4.60
2018-03-07T02:57:16.758Z,4.60
2018-03-07T02:59:44.229Z,4.50
2018-03-07T03:02:12.473Z,4.60
2018-03-07T03:04:39.951Z,4.50
2018-03-07T03:07:07.405Z,4.50
2018-03-07T03:09:34.858Z,4.50
2018-03-07T03:12:02.329Z,4.50
2018-03-07T03:14:30.554Z,4.60
2018-03-07T03:16:58.023Z,4.60
2018-03-07T03:19:25.494Z,4.70
2018-03-07T03:21:52.962Z,4.70
2018-03-07T03:24:20.461Z,4.60
2018-03-07T03:26:47.932Z,4.60
2018-03-07T03:29:15.403Z,4.60
2018-03-07T03:31:42.868Z,4.60
2018-03-07T03:34:10.340Z,4.70
2018-03-07T03:36:37.802Z,4.70
2018-03-07T03:39:05.255Z,4.60
2018-03-07T03:41:32.722Z,4.60
2018-03-07T03:44:00.964Z,4.60
2018-03-07T03:46:28.435Z,4.60
2018-03-07T03:48:55.903Z,4.60
2018-03-07T03:51:23.364Z,4.60
2018-03-07T03:53:50.823Z,4.60
2018-03-07T03:56:18.294Z,4.60
2018-03-07T03:58:46.539Z,4.50
2018-03-07T04:01:14.020Z,4.50
2018-03-07T04:03:42.281Z,4.30
2018-03-07T04:06:09.751Z,4.30
2018-03-07T04:08:37.970Z,4.20
2018-03-07T04:11:05.448Z,4.20
2018-03-07T04:13:32.935Z,4.10
2018-03-07T04:16:00.402Z,4.00
2018-03-07T04:18:28.711Z,3.80
2018-03-07T04:20:56.171Z,3.80
2018-03-07T04:23:23.645Z,3.70
2018-03-07T04:25:51.122Z,3.70
2018-03-07T04:28:18.598Z,3.70
2018-03-07T04:30:46.830Z,3.70
2018-03-07T04:33:14.316Z,3.70
2018-03-07T04:35:41.798Z,3.70
2018-03-07T04:38:10.054Z,3.60
2018-03-07T04:40:37.528Z,3.60
2018-03-07T04:43:05.776Z,3.70
2018-03-07T04:45:33.262Z,3.70
2018-03-07T04:48:00.757Z,3.70
2018-03-07T04:50:28.262Z,3.60
2018-03-07T04:52:55.727Z,3.50
2018-03-07T04:55:23.971Z,3.40
2018-03-07T04:57:51.447Z,3.40
2018-03-07T05:00:18.928Z,3.40
2018-03-07T05:02:47.216Z,3.30
2018-03-07T05:05:14.655Z,3.30
2018-03-07T05:07:42.901Z,3.10
2018-03-07T05:10:10.369Z,3.10
2018-03-07T05:12:37.842Z,3.10
2018-03-07T05:15:06.083Z,3.10
2018-03-07T05:17:33.565Z,3.10
2018-03-07T05:20:01.811Z,3.10
2018-03-07T05:22:29.310Z,3.10
2018-03-07T05:24:57.546Z,3.20
2018-03-07T05:27:26.538Z,3.20
2018-03-07T05:29:54.032Z,3.20
2018-03-07T05:32:22.268Z,3.20
2018-03-07T05:34:49.757Z,3.10
2018-03-07T05:37:17.999Z,3.10
2018-03-07T05:39:45.478Z,3.10
2018-03-07T05:42:14.563Z,3.10
2018-03-07T05:44:42.032Z,3.10
2018-03-07T05:47:09.498Z,3.10
2018-03-07T05:49:37.743Z,3.00
2018-03-07T05:52:05.218Z,3.00
2018-03-07T05:54:32.699Z,3.00
2018-03-07T05:57:01.008Z,2.90
2018-03-07T05:59:28.540Z,2.90
2018-03-07T06:01:56.057Z,2.90
2018-03-07T06:04:23.612Z,2.90
2018-03-07T06:06:51.102Z,3.00
2018-03-07T06:09:19.328Z,2.90
2018-03-07T06:11:46.807Z,2.90
2018-03-07T06:14:14.300Z,2.90
2018-03-07T06:16:42.530Z,2.90
2018-03-07T06:19:10.115Z,2.80
2018-03-07T06:21:38.358Z,2.80
2018-03-07T06:24:05.846Z,2.80
2018-03-07T06:26:34.091Z,2.80
2018-03-07T06:29:01.558Z,2.80
2018-03-07T06:31:29.039Z,2.80
2018-03-07T06:33:57.278Z,2.90
2018-03-07T06:36:24.790Z,2.90
2018-03-07T06:38:52.379Z,3.00
2018-03-07T06:41:19.858Z,3.00
2018-03-07T06:43:47.334Z,3.10
2018-03-07T06:46:14.815Z,3.10
2018-03-07T06:48:43.069Z,3.10
2018-03-07T06:51:10.538Z,3.10
2018-03-07T06:53:38.775Z,3.10
2018-03-07T06:56:06.271Z,3.10
2018-03-07T06:58:34.527Z,3.20
2018-03-07T07:01:01.995Z,3.20
2018-03-07T07:03:30.255Z,3.30
2018-03-07T07:05:57.727Z,3.30
2018-03-07T07:08:26.010Z,3.40
2018-03-07T07:10:54.260Z,3.50
2018-03-07T07:13:21.733Z,3.40
2018-03-07T07:15:49.187Z,3.50
2018-03-07T07:18:16.669Z,3.50
2018-03-07T07:20:44.907Z,3.70
2018-03-07T07:23:12.370Z,3.70
2018-03-07T07:25:39.839Z,3.70
2018-03-07T07:28:08.108Z,3.80
2018-03-07T07:30:35.563Z,3.80
2018-03-07T07:33:03.040Z,3.80
2018-03-07T07:35:31.346Z,4.00
2018-03-07T07:37:58.802Z,4.00
2018-03-07T07:40:26.324Z,4.10
2018-03-07T07:42:54.561Z,4.40
2018-03-07T07:45:22.026Z,4.40
2018-03-07T07:47:49.495Z,4.50
2018-03-07T07:50:16.968Z,4.60
2018-03-07T07:52:45.947Z,4.80
2018-03-07T07:55:13.415Z,4.80
2018-03-07T07:57:41.685Z,4.90
2018-03-07T08:00:09.149Z,4.90
2018-03-07T08:02:36.626Z,5.00
2018-03-07T08:05:04.116Z,5.10
2018-03-07T08:07:31.588Z,5.10
2018-03-07T08:09:59.058Z,5.20
2018-03-07T08:12:26.547Z,5.40
2018-03-07T08:14:54.797Z,5.70
2018-03-07T08:17:22.267Z,5.70
2018-03-07T08:19:49.729Z,5.80
2018-03-07T08:22:17.954Z,6.20
2018-03-07T08:24:45.423Z,6.10
2018-03-07T08:27:12.900Z,6.30
2018-03-07T08:29:40.364Z,6.40
2018-03-07T08:32:08.666Z,6.40
2018-03-07T08:34:36.931Z,6.50
2018-03-07T08:37:05.194Z,6.50
2018-03-07T08:39:32.710Z,6.50
2018-03-07T08:42:00.265Z,6.70
2018-03-07T08:44:27.856Z,6.80
2018-03-07T08:46:55.330Z,6.90
2018-03-07T08:49:23.591Z,6.90
2018-03-07T08:51:51.064Z,6.90
2018-03-07T08:54:19.316Z,7.10
2018-03-07T08:56:46.799Z,7.00
2018-03-07T08:59:15.036Z,7.20
2018-03-07T09:01:42.521Z,7.20
2018-03-07T09:04:09.998Z,7.30
2018-03-07T09:06:38.224Z,7.50
2018-03-07T09:09:05.703Z,7.40
2018-03-07T09:11:33.171Z,7.60
2018-03-07T09:14:01.394Z,7.90
2018-03-07T09:16:29.125Z,7.90
2018-03-07T09:18:57.354Z,8.30
2018-03-07T09:21:24.856Z,8.30
2018-03-07T09:23:53.121Z,8.70
2018-03-07T09:26:21.347Z,8.90
2018-03-07T09:28:48.944Z,8.90
2018-03-07T09:31:16.438Z,9.20
2018-03-07T09:33:43.903Z,9.30
2018-03-07T09:36:11.391Z,9.40
2018-03-07T09:38:38.866Z,9.40
2018-03-07T09:41:06.640Z,9.40
2018-03-07T09:43:34.124Z,9.30
2018-03-07T09:46:01.599Z,9.30
2018-03-07T09:48:29.083Z,9.40
2018-03-07T09:50:56.563Z,9.40
2018-03-07T09:53:24.815Z,9.60
2018-03-07T09:55:52.290Z,9.60
2018-03-07T09:58:19.745Z,9.70
2018-03-07T10:00:47.214Z,9.70
2018-03-07T10:03:15.452Z,10.10
2018-03-07T10:05:42.926Z,10.10
2018-03-07T10:08:10.419Z,10.30
2018-03-07T10:10:38.653Z,10.20
2018-03-07T10:13:06.143Z,10.20
2018-03-07T10:15:33.611Z,10.10
2018-03-07T10:18:01.883Z,9.90
2018-03-07T10:20:30.102Z,9.90
2018-03-07T10:22:57.628Z,9.90
2018-03-07T10:25:25.059Z,10.10
2018-03-07T10:27:53.296Z,10.50
2018-03-07T10:30:20.758Z,10.50
2018-03-07T10:32:48.251Z,10.50
2018-03-07T10:35:16.491Z,10.70
2018-03-07T10:37:43.966Z,10.70
2018-03-07T10:40:11.444Z,10.70
2018-03-07T10:42:39.684Z,11.10
2018-03-07T10:45:07.174Z,11.10
2018-03-07T10:47:35.411Z,11.40
2018-03-07T10:50:02.895Z,11.40
2018-03-07T10:52:30.363Z,11.50
2018-03-07T10:54:58.600Z,11.30
2018-03-07T10:57:26.077Z,11.30
2018-03-07T10:59:53.530Z,11.30
2018-03-07T11:02:21.013Z,11.10
2018-03-07T11:04:49.267Z,11.00
2018-03-07T11:07:16.770Z,10.90
2018-03-07T11:09:44.242Z,10.80
2018-03-07T11:12:11.739Z,10.70
2018-03-07T11:14:39.228Z,10.70
2018-03-07T11:17:07.451Z,10.50
2018-03-07T11:19:35.699Z,10.40
2018-03-07T11:22:03.163Z,10.40
2018-03-07T11:24:30.660Z,10.30
2018-03-07T11:26:58.154Z,10.20
2018-03-07T11:29:25.610Z,10.20
2018-03-07T11:31:53.076Z,10.30
2018-03-07T11:34:20.597Z,10.30
2018-03-07T11:36:48.076Z,10.40
2018-03-07T11:39:15.538Z,10.40
2018-03-07T11:41:42.996Z,10.50
2018-03-07T11:44:10.479Z,10.60
2018-03-07T11:46:37.984Z,10.70
2018-03-07T11:49:05.431Z,10.70
2018-03-07T11:51:32.916Z,10.90
2018-03-07T11:54:01.146Z,10.80
2018-03-07T11:56:28.715Z,10.70
2018-03-07T11:58:56.224Z,10.90
2018-03-07T12:01:23.711Z,10.80
2018-03-07T12:03:51.183Z,10.70
2018-03-07T12:06:18.655Z,10.70
2018-03-07T12:08:46.223Z,10.70
2018-03-07T12:11:14.455Z,10.90
2018-03-07T12:13:41.942Z,10.90
2018-03-07T12:16:09.402Z,11.00
2018-03-07T12:18:36.905Z,11.10
2018-03-07T12:21:04.379Z,11.40
2018-03-07T12:23:31.847Z,11.50
2018-03-07T12:25:59.315Z,11.50
2018-03-07T12:28:26.787Z,11.50
2018-03-07T12:30:54.252Z,11.30
2018-03-07T12:33:22.506Z,11.20
2018-03-07T12:35:49.978Z,11.10
2018-03-07T12:38:18.213Z,11.20
2018-03-07T12:40:45.691Z,11.10
2018-03-07T12:43:13.167Z,11.40
2018-03-07T12:45:40.627Z,11.30
2018-03-07T12:48:08.920Z,11.70
2018-03-07T12:50:37.169Z,11.90
2018-03-07T12:53:04.636Z,11.90
2018-03-07T12:55:32.888Z,12.10
2018-03-07T12:58:00.370Z,12.10
2018-03-07T13:00:28.660Z,12.90
2018-03-07T13:02:56.913Z,13.50
2018-03-07T13:05:24.382Z,13.40
2018-03-07T13:07:52.611Z,13.50
2018-03-07T13:10:20.091Z,13.40
2018-03-07T13:12:47.582Z,13.50
2018-03-07T13:15:15.807Z,13.20
2018-03-07T13:17:43.298Z,13.20
2018-03-07T13:20:11.539Z,13.50
2018-03-07T13:22:39.024Z,13.40
2018-03-07T13:25:06.503Z,14.10
2018-03-07T13:27:34.738Z,14.40
2018-03-07T13:30:02.213Z,14.40
2018-03-07T13:32:29.742Z,14.30
2018-03-07T13:34:57.228Z,14.30
2018-03-07T13:37:24.695Z,14.10
2018-03-07T13:39:52.939Z,14.20
2018-03-07T13:42:20.411Z,14.20
2018-03-07T13:44:47.871Z,14.20
2018-03-07T13:47:15.331Z,13.70
2018-03-07T13:49:42.823Z,13.50
2018-03-07T13:52:11.068Z,13.50
2018-03-07T13:54:39.702Z,13.40
2018-03-07T13:57:07.167Z,13.30
2018-03-07T13:59:34.710Z,13.10
2018-03-07T14:02:02.180Z,12.80
2018-03-07T14:04:29.855Z,12.60
2018-03-07T14:06:57.358Z,12.20
2018-03-07T14:09:25.624Z,12.40
2018-03-07T14:11:53.075Z,12.30
2018-03-07T14:14:21.311Z,12.30
2018-03-07T14:16:48.839Z,12.30
2018-03-07T14:19:16.315Z,12.20
2018-03-07T14:21:43.784Z,12.20
2018-03-07T14:24:11.287Z,12.00
2018-03-07T14:26:39.532Z,12.40
2018-03-07T14:29:07.007Z,12.40
2018-03-07T14:31:34.501Z,12.40
2018-03-07T14:34:01.983Z,12.50
2018-03-07T14:36:29.476Z,12.60
2018-03-07T14:38:56.952Z,12.40
2018-03-07T14:41:25.198Z,12.30
2018-03-07T14:43:52.650Z,12.30
2018-03-07T14:46:20.132Z,12.10
2018-03-07T14:48:48.380Z,11.90
2018-03-07T14:51:15.836Z,11.90
2018-03-07T14:53:43.311Z,11.80
2018-03-07T14:56:10.825Z,11.70
2018-03-07T14:58:38.302Z,11.70
2018-03-07T15:01:05.816Z,11.50
2018-03-07T15:03:33.315Z,11.50
2018-03-07T15:06:00.830Z,11.40
2018-03-07T15:08:29.098Z,11.10
2018-03-07T15:10:57.366Z,11.00
2018-03-07T15:13:25.619Z,11.00
2018-03-07T15:15:53.081Z,11.00
2018-03-07T15:18:20.556Z,11.00
2018-03-07T15:20:48.848Z,10.90
2018-03-07T15:23:16.343Z,10.90
2018-03-07T15:25:43.827Z,10.90
2018-03-07T15:28:11.324Z,10.90
2018-03-07T15:30:39.643Z,10.90
2018-03-07T15:33:07.115Z,10.90
2018-03-07T15:35:34.598Z,10.80
2018-03-07T15:38:02.847Z,10.70
2018-03-07T15:40:30.314Z,10.70
2018-03-07T15:42:58.551Z,10.40
2018-03-07T15:45:26.038Z,10.30
2018-03-07T15:47:53.499Z,10.40
2018-03-07T15:50:20.967Z,10.30
2018-03-07T15:52:49.245Z,10.30
2018-03-07T15:55:17.541Z,10.30
2018-03-07T15:57:45.042Z,10.30
2018-03-07T16:00:12.520Z,10.30
2018-03-07T16:02:40.052Z,10.10
2018-03-07T16:05:07.550Z,10.10
2018-03-07T16:07:35.791Z,9.70
2018-03-07T16:10:03.263Z,9.70
2018-03-07T16:12:30.795Z,9.60
2018-03-07T16:14:58.284Z,9.40
2018-03-07T16:17:25.747Z,9.20
2018-03-07T16:19:53.269Z,9.10
2018-03-07T16:22:20.753Z,8.90
2018-03-07T16:24:48.256Z,8.70
2018-03-07T16:27:15.725Z,8.60
2018-03-07T16:29:43.185Z,8.60
2018-03-07T16:32:10.662Z,8.60
2018-03-07T16:34:38.157Z,8.70
2018-03-07T16:37:06.389Z,8.70
2018-03-07T16:39:33.876Z,8.70
2018-03-07T16:42:01.343Z,8.70
2018-03-07T16:44:29.848Z,8.50
2018-03-07T16:46:57.403Z,8.50
2018-03-07T16:49:24.869Z,8.50
2018-03-07T16:51:52.348Z,8.50
2018-03-07T16:54:19.827Z,8.40
2018-03-07T16:56:47.317Z,8.40
2018-03-07T16:59:15.552Z,8.40
2018-03-07T17:01:43.084Z,8.40
2018-03-07T17:04:10.652Z,8.30
2018-03-07T17:06:38.115Z,8.20
2018-03-07T17:09:05.651Z,8.20
2018-03-07T17:11:34.090Z,8.20
2018-03-07T17:14:02.366Z,8.00
2018-03-07T17:16:30.024Z,8.00
2018-03-07T17:18:57.514Z,7.90
2018-03-07T17:21:24.976Z,8.00
2018-03-07T17:23:52.506Z,7.80
2018-03-07T17:26:20.787Z,7.80
2018-03-07T17:28:49.383Z,7.70
2018-03-07T17:31:16.916Z,7.70
2018-03-07T17:33:44.464Z,7.50
2018-03-07T17:36:11.947Z,7.40
2018-03-07T17:38:40.185Z,7.50
2018-03-07T17:41:07.671Z,7.50
2018-03-07T17:43:35.135Z,7.40
2018-03-07T17:46:03.378Z,7.30
2018-03-07T17:48:30.931Z,7.30
2018-03-07T17:50:58.444Z,7.40
2018-03-07T17:53:26.228Z,7.40
2018-03-07T17:55:54.396Z,7.40
2018-03-07T17:58:22.512Z,7.20
2018-03-07T18:00:50.403Z,7.20
2018-03-07T18:03:18.524Z,7.20
2018-03-07T18:05:45.984Z,7.30
2018-03-07T18:08:13.477Z,7.10
2018-03-07T18:10:40.991Z,7.10
2018-03-07T18:13:08.481Z,7.00
2018-03-07T18:15:36.023Z,6.90
2018-03-07T18:18:03.504Z,6.90
2018-03-07T18:20:31.183Z,6.90
2018-03-07T18:22:59.456Z,6.90
2018-03-07T18:25:27.679Z,6.90
2018-03-07T18:27:55.155Z,6.80
2018-03-07T18:30:23.468Z,6.80
2018-03-07T18:32:50.978Z,6.80
2018-03-07T18:35:18.439Z,6.80
2018-03-07T18:37:45.939Z,6.70
2018-03-07T18:40:14.196Z,6.60
2018-03-07T18:42:41.702Z,6.60
2018-03-07T18:45:10.296Z,6.60
2018-03-07T18:47:37.904Z,6.60
2018-03-07T18:50:07.175Z,6.60
2018-03-07T18:52:34.662Z,6.60
2018-03-07T18:55:02.924Z,6.60
2018-03-07T18:57:30.389Z,6.50
2018-03-07T18:59:57.880Z,6.40
2018-03-07T19:02:25.567Z,6.40
2018-03-07T19:04:53.810Z,6.30
2018-03-07T19:07:21.291Z,6.30
2018-03-07T19:09:48.819Z,6.10
2018-03-07T19:12:17.072Z,6.20
2018-03-07T19:14:44.556Z,6.20
2018-03-07T19:17:12.017Z,6.20
2018-03-07T19:19:39.512Z,6.10
2018-03-07T19:22:06.963Z,6.10
2018-03-07T19:24:35.199Z,6.00
2018-03-07T19:27:02.700Z,6.00
2018-03-07T19:29:30.168Z,5.90
2018-03-07T19:31:57.630Z,6.00
2018-03-07T19:34:28.416Z,5.90
2018-03-07T19:36:55.916Z,6.00
2018-03-07T19:39:23.379Z,5.90
2018-03-07T19:41:50.874Z,5.90
2018-03-07T19:44:19.135Z,6.00
2018-03-07T19:46:46.599Z,6.00
2018-03-07T19:49:14.856Z,5.90
2018-03-07T19:51:42.334Z,6.00
2018-03-07T19:54:10.588Z,5.90
2018-03-07T19:56:38.105Z,5.90
2018-03-07T19:59:06.376Z,5.90
2018-03-07T20:01:34.388Z,5.80
2018-03-07T20:04:01.908Z,5.80
2018-03-07T20:06:29.391Z,5.80
2018-03-07T20:08:56.943Z,5.80
2018-03-07T20:11:24.444Z,5.70
2018-03-07T20:13:52.688Z,5.70
2018-03-07T20:16:20.212Z,5.70
2018-03-07T20:18:47.711Z,5.70
2018-03-07T20:21:15.218Z,5.60
2018-03-07T20:23:42.686Z,5.60
2018-03-07T20:26:10.196Z,5.60
2018-03-07T20:28:38.442Z,5.50
2018-03-07T20:31:05.944Z,5.50
2018-03-07T20:33:34.227Z,5.50
2018-03-07T20:36:01.779Z,5.50
2018-03-07T20:38:30.020Z,5.40
2018-03-07T20:40:57.544Z,5.40
2018-03-07T20:43:25.019Z,5.50
2018-03-07T20:45:52.491Z,5.40
2018-03-07T20:48:19.984Z,5.40
2018-03-07T20:50:48.242Z,5.40
2018-03-07T20:53:16.515Z,5.30
2018-03-07T20:55:44.770Z,5.30
2018-03-07T20:58:12.279Z,5.30
2018-03-07T21:00:39.774Z,5.30
2018-03-07T21:03:07.243Z,5.30
2018-03-07T21:05:34.708Z,5.20
2018-03-07T21:08:02.175Z,5.20
2018-03-07T21:10:30.022Z,5.20
2018-03-07T21:12:58.338Z,5.20
2018-03-07T21:15:26.836Z,5.10
2018-03-07T21:17:54.450Z,5.10
2018-03-07T21:20:21.940Z,5.10
2018-03-07T21:22:49.467Z,5.10
2018-03-07T21:25:17.725Z,5.10
2018-03-07T21:27:45.197Z,5.10
2018-03-07T21:30:12.671Z,5.10
2018-03-07T21:32:41.736Z,5.10
2018-03-07T21:35:09.919Z,5.10
2018-03-07T21:37:37.390Z,5.10
2018-03-07T21:40:05.636Z,5.10
2018-03-07T21:42:33.122Z,5.10
2018-03-07T21:45:00.600Z,5.10
2018-03-07T21:47:28.845Z,5.10
2018-03-07T21:49:56.324Z,5.10
2018-03-07T21:52:24.604Z,5.10
2018-03-07T21:54:52.830Z,5.20
2018-03-07T21:57:20.322Z,5.10
2018-03-07T21:59:48.553Z,5.20
2018-03-07T22:02:16.028Z,5.10
2018-03-07T22:04:43.523Z,5.20
2018-03-07T22:07:11.754Z,5.20
2018-03-07T22:09:39.239Z,5.20
2018-03-07T22:12:06.712Z,5.30
2018-03-07T22:14:34.961Z,5.30
2018-03-07T22:17:02.480Z,5.20
2018-03-07T22:19:30.031Z,5.30
2018-03-07T22:21:57.509Z,5.30
2018-03-07T22:24:25.019Z,5.30
2018-03-07T22:26:53.298Z,5.30
2018-03-07T22:29:21.582Z,5.30
2018-03-07T22:31:49.099Z,5.30
2018-03-07T22:34:16.656Z,5.30
2018-03-07T22:36:44.154Z,5.30
2018-03-07T22:39:11.650Z,5.30
2018-03-07T22:41:39.102Z,5.30
2018-03-07T22:44:06.562Z,5.30
2018-03-07T22:46:34.055Z,5.20
2018-03-07T22:49:01.534Z,5.20
2018-03-07T22:51:28.999Z,5.20
2018-03-07T22:53:56.479Z,5.20
2018-03-07T22:56:23.951Z,5.20
2018-03-07T22:58:51.431Z,5.20
2018-03-07T23:01:19.263Z,5.20
2018-03-07T23:03:46.739Z,5.20
2018-03-07T23:06:14.274Z,5.20
2018-03-07T23:08:41.751Z,5.20
2018-03-07T23:11:09.234Z,5.20
2018-03-07T23:13:36.699Z,5.10
2018-03-07T23:16:04.942Z,5.00
2018-03-07T23:18:32.747Z,4.90
2018-03-07T23:21:00.278Z,4.90
2018-03-07T23:23:27.790Z,4.90
2018-03-07T23:25:55.268Z,4.80
2018-03-07T23:28:23.494Z,4.70
2018-03-07T23:30:50.973Z,4.70
2018-03-07T23:33:18.555Z,4.70
2018-03-07T23:35:46.032Z,4.70
2018-03-07T23:38:13.494Z,4.60
2018-03-07T23:40:40.954Z,4.50
2018-03-07T23:43:08.452Z,4.50
2018-03-07T23:45:35.920Z,4.50
2018-03-07T23:48:04.185Z,4.40
2018-03-07T23:50:31.671Z,4.30
2018-03-07T23:52:59.154Z,4.40
2018-03-07T23:55:26.627Z,4.30
2018-03-07T23:57:54.099Z,4.20
